Wallace, Idaho
Current Conditions -  °F | °C
As of 8:53 AM on Thursday 23 Oct 2014 (Local Time) from KMLP Reporting Station
Light Rain Light Rain  
Wind Chill: 34°   Ceiling: 100
Heat Index: 39°   Visibility: 0.25mi
Dew Point: 39°   Wind: 7mph
Humidity: 100%   Direction: NA
Pressure: 29.86"   Gusts: 18mph
Location:  47.47°N, 115.93°W
Report Text: KMLP 231553Z AUTO VRB06G16KT 1/4SM -RA FG VV001 04/04 A2986 RMK AO2 SLP059 P0013 T00390039
Loading
Personal Weather Stations






























Interactive Weather Map
Tropical Storm Tracking
New forecast layout! Learn more

10-Day Weather Forecast

Advertisements
Track Severe Weather on mobile